Time;durP1;ratioP1;P1;durP2;ratioP2;P2;SDS_P1;SDS_P2;PMS_P1;PMS_P2;Temp;Humidity;BMP_temperature;BMP_pressure;BME280_temperature;BME280_humidity;BME280_pressure;Samples;Min_cycle;Max_cycle;Signal;HPM_P1;HPM_P2
2022/09/05 00:00:18;;;;;;;3.03;2.83;;;;;;;19.87;76.41;102030.78;4996514;28;20502;-84
2022/09/05 00:03:03;;;;;;;2.77;2.47;;;;;;;19.84;76.14;102029.00;5019036;28;20035;-84
2022/09/05 00:06:12;;;;;;;5.63;2.83;;;;;;;19.83;76.49;102032.63;4994252;28;20293;-83
2022/09/05 00:09:03;;;;;;;5.25;3.00;;;;;;;19.81;76.49;102030.84;4985694;28;20110;-83
2022/09/05 00:11:45;;;;;;;2.60;2.40;;;;;;;19.76;76.31;102028.25;5026637;28;20041;-85
2022/09/05 00:14:39;;;;;;;5.10;2.35;;;;;;;19.72;76.44;102026.56;4987959;28;20053;-84
2022/09/05 00:17:41;;;;;;;4.90;2.25;;;;;;;19.71;76.84;102034.56;5020283;28;20041;-84
2022/09/05 00:20:48;;;;;;;2.80;2.60;;;;;;;19.65;77.22;102030.19;4979821;28;20147;-84
2022/09/05 00:24:14;;;;;;;5.32;2.30;;;;;;;19.64;77.16;102025.75;5014912;28;20056;-83
2022/09/05 00:27:15;;;;;;;4.93;2.58;;;;;;;19.59;77.06;102031.19;5022738;28;20402;-84
2022/09/05 00:30:09;;;;;;;4.63;2.80;;;;;;;19.58;77.51;102024.03;5013040;28;20446;-84
2022/09/05 00:33:39;;;;;;;3.22;2.92;;;;;;;19.55;77.57;102021.44;5010874;28;20036;-84
2022/09/05 00:36:14;;;;;;;2.60;2.40;;;;;;;19.52;77.61;102025.94;4988341;28;20414;-83
2022/09/05 00:38:57;;;;;;;5.32;2.97;;;;;;;19.50;77.93;102025.97;5010287;28;20064;-84
2022/09/05 00:41:27;;;;;;;4.70;3.25;;;;;;;19.47;77.91;102020.69;5008143;28;20072;-84
2022/09/05 00:44:02;;;;;;;3.20;3.00;;;;;;;19.42;77.80;102020.75;4991273;28;20526;-84
2022/09/05 00:46:38;;;;;;;4.13;3.13;;;;;;;19.38;78.18;102015.47;5017377;28;20041;-84
2022/09/05 00:49:21;;;;;;;6.75;3.45;;;;;;;19.35;78.14;102016.38;5034051;28;20041;-85
2022/09/05 00:52:22;;;;;;;3.03;2.63;;;;;;;19.32;78.40;102020.88;4994476;28;20033;-84
2022/09/05 00:54:50;;;;;;;;;;;;;;;19.25;78.42;102029.00;4980964;28;20695;-83
2022/09/05 00:57:41;;;;;;;4.30;2.60;;;;;;;19.20;78.47;102024.63;5023233;28;19923;-84
2022/09/05 01:00:32;;;;;;;3.67;2.88;;;;;;;19.15;78.36;102022.03;5016959;28;20045;-84
2022/09/05 01:03:08;;;;;;;3.80;2.53;;;;;;;19.12;78.69;102019.38;5008390;28;20049;-85
2022/09/05 01:06:05;;;;;;;5.60;2.70;;;;;;;19.08;78.71;102021.22;4992769;28;20679;-84
2022/09/05 01:09:09;;;;;;;3.15;2.60;;;;;;;19.04;78.92;102026.63;5008048;28;20045;-84
2022/09/05 01:11:49;;;;;;;5.30;2.72;;;;;;;19.01;79.12;102021.31;5000938;28;20054;-84
2022/09/05 01:14:30;;;;;;;6.90;2.70;;;;;;;18.99;79.34;102026.69;5012223;28;20283;-84
2022/09/05 01:17:17;;;;;;;5.65;3.15;;;;;;;18.97;79.15;102019.59;5011892;28;20491;-85
2022/09/05 01:20:07;;;;;;;6.57;3.05;;;;;;;18.93;79.54;102024.09;5009273;28;20037;-85
2022/09/05 01:22:59;;;;;;;3.72;2.90;;;;;;;18.91;79.07;102023.25;5007794;28;20038;-85
2022/09/05 01:25:48;;;;;;;10.90;2.95;;;;;;;18.88;79.45;102026.84;4997765;28;20368;-84
2022/09/05 01:28:28;;;;;;;4.00;2.97;;;;;;;18.86;79.43;102022.41;5012463;28;20037;-84
2022/09/05 01:31:28;;;;;;;4.22;2.80;;;;;;;18.82;79.56;102021.56;5011284;28;20037;-83
2022/09/05 01:34:15;;;;;;;3.85;3.30;;;;;;;18.78;79.27;102025.13;5021979;28;20049;-84
2022/09/05 01:37:10;;;;;;;3.30;2.78;;;;;;;18.74;80.01;102028.75;4999090;28;20507;-84
2022/09/05 01:40:18;;;;;;;3.78;3.22;;;;;;;18.69;80.28;102023.47;5012124;28;20048;-84
2022/09/05 01:43:00;;;;;;;5.28;3.13;;;;;;;18.69;80.24;102019.91;5011111;28;20041;-84
2022/09/05 01:45:54;;;;;;;5.30;2.85;;;;;;;18.64;80.47;102019.97;5022548;28;20048;-84
2022/09/05 01:48:48;;;;;;;4.07;2.60;;;;;;;18.62;80.04;102029.78;5028116;28;20049;-84
2022/09/05 01:52:04;;;;;;;2.90;2.70;;;;;;;18.60;80.45;102020.91;4978671;28;20058;-84
2022/09/05 01:54:46;;;;;;;6.15;2.88;;;;;;;18.58;80.78;102017.38;5016419;28;20045;-83
2022/09/05 01:57:46;;;;;;;3.85;2.50;;;;;;;18.56;80.67;102026.28;4991521;28;20160;-84
2022/09/05 02:00:21;;;;;;;3.58;2.90;;;;;;;18.53;80.64;102023.69;5010841;28;20270;-84
2022/09/05 02:03:12;;;;;;;5.93;2.75;;;;;;;18.50;81.04;102021.91;5014205;28;20109;-85
2022/09/05 02:06:05;;;;;;;3.40;2.72;;;;;;;18.47;81.54;102020.16;5025973;28;20056;-84
2022/09/05 02:09:00;;;;;;;3.92;2.78;;;;;;;18.43;81.62;102017.53;4978540;28;20030;-84
2022/09/05 02:11:44;;;;;;;4.60;2.90;;;;;;;18.40;81.77;102017.59;5015647;28;20052;-85
2022/09/05 02:14:28;;;;;;;4.15;3.00;;;;;;;18.36;81.71;102018.53;5004148;28;20270;-85
2022/09/05 02:17:25;;;;;;;3.10;2.90;;;;;;;18.34;82.07;102020.31;5000104;28;20541;-85
2022/09/05 02:20:25;;;;;;;5.72;2.88;;;;;;;18.28;82.31;102015.94;4991295;28;20050;-86
2022/09/05 02:23:06;;;;;;;4.00;3.10;;;;;;;18.29;82.19;102015.00;4994151;28;20037;-83
2022/09/05 02:26:04;;;;;;;3.05;2.80;;;;;;;18.26;82.94;102023.94;5006276;28;20053;-84
2022/09/05 02:28:42;;;;;;;5.47;2.75;;;;;;;18.24;82.62;102028.41;4988037;28;20499;-84
2022/09/05 02:31:23;;;;;;;2.90;2.50;;;;;;;18.22;83.03;102030.22;5013093;28;20041;-84
2022/09/05 02:34:10;;;;;;;;;;;;;;;18.17;83.96;102024.03;5013021;28;20045;-84
2022/09/05 02:36:47;;;;;;;2.85;2.53;;;;;;;18.15;83.30;102033.84;4993663;28;19921;-84
2022/09/05 02:39:28;;;;;;;7.28;2.88;;;;;;;18.14;83.50;102033.84;5008221;28;20547;-85
2022/09/05 02:42:26;;;;;;;3.72;2.65;;;;;;;18.10;83.68;102028.53;5027932;28;20155;-85
2022/09/05 02:45:15;;;;;;;3.75;2.53;;;;;;;18.08;83.82;102026.78;5023260;28;20244;-84
2022/09/05 02:47:53;;;;;;;2.55;2.35;;;;;;;18.08;84.48;102026.78;5002022;28;20060;-84
2022/09/05 02:50:28;;;;;;;3.88;2.75;;;;;;;18.06;84.82;102024.13;5015775;28;20140;-84
2022/09/05 02:53:20;;;;;;;4.05;2.90;;;;;;;18.02;84.64;102017.06;5008306;28;20594;-85
2022/09/05 02:56:29;;;;;;;2.55;2.28;;;;;;;18.02;84.88;102025.06;4991014;28;20131;-85
2022/09/05 02:59:40;;;;;;;6.50;2.70;;;;;;;18.00;85.04;102025.97;5006121;28;20461;-83
2022/09/05 03:02:25;;;;;;;2.45;2.30;;;;;;;17.97;85.37;102023.34;5010750;28;20049;-84
2022/09/05 03:05:08;;;;;;;4.50;3.08;;;;;;;17.92;85.41;102021.59;5008873;28;20053;-84
2022/09/05 03:07:55;;;;;;;3.15;2.70;;;;;;;17.90;86.07;102017.16;4987853;28;20049;-85
2022/09/05 03:10:30;;;;;;;4.75;2.70;;;;;;;17.87;86.21;102015.41;4979983;28;20053;-84
2022/09/05 03:13:55;;;;;;;2.80;2.58;;;;;;;17.84;86.18;102023.41;5013414;28;20424;-84
2022/09/05 03:16:47;;;;;;;4.20;2.60;;;;;;;17.83;86.66;102020.75;5009713;28;20841;-84
2022/09/05 03:19:55;;;;;;;3.80;2.92;;;;;;;17.80;87.65;102026.09;5001131;28;20698;-84
2022/09/05 03:22:26;;;;;;;2.60;2.40;;;;;;;17.76;86.70;102019.91;4969712;28;20057;-84
2022/09/05 03:25:38;;;;;;;4.47;3.10;;;;;;;17.75;87.04;102023.50;4988420;28;20514;-84
2022/09/05 03:28:32;;;;;;;4.72;2.97;;;;;;;17.73;87.04;102014.59;4980124;28;20060;-84
2022/09/05 03:31:10;;;;;;;4.15;3.20;;;;;;;17.71;87.22;102016.38;4988723;28;20053;-84
2022/09/05 03:34:12;;;;;;;4.38;2.65;;;;;;;17.69;87.11;102023.50;5012565;28;20038;-85
2022/09/05 03:37:31;;;;;;;5.38;2.70;;;;;;;17.65;88.03;102027.97;4999298;28;20041;-84
2022/09/05 03:40:32;;;;;;;4.82;3.38;;;;;;;17.63;88.06;102027.09;4924166;28;20052;-85
2022/09/05 03:43:29;;;;;;;5.05;2.63;;;;;;;17.59;88.21;102022.69;4950362;29;20046;-85
2022/09/05 03:46:18;;;;;;;5.00;2.95;;;;;;;17.58;88.39;102034.28;5011964;28;20090;-85
2022/09/05 03:49:36;;;;;;;2.65;2.45;;;;;;;17.55;89.04;102020.97;5013688;28;20061;-85
2022/09/05 03:52:43;;;;;;;6.07;2.80;;;;;;;17.52;88.69;102029.88;5018289;28;20053;-84
2022/09/05 03:55:50;;;;;;;3.10;2.75;;;;;;;17.52;89.25;102031.63;4969974;28;20057;-83
2022/09/05 03:59:00;;;;;;;6.95;6.03;;;;;;;17.50;89.08;102039.66;5012051;28;20631;-83
2022/09/05 04:01:39;;;;;;;;;;;;;;;17.48;90.24;102041.41;4999256;28;20518;-83
2022/09/05 04:04:39;;;;;;;3.13;2.75;;;;;;;17.45;89.16;102036.13;5032715;28;19921;-84
2022/09/05 04:07:55;;;;;;;4.40;2.70;;;;;;;17.42;90.05;102043.25;5016658;28;20053;-84
2022/09/05 04:11:07;;;;;;;3.30;2.70;;;;;;;17.41;90.30;102045.03;4998105;28;20049;-84
2022/09/05 04:13:49;;;;;;;4.35;3.15;;;;;;;17.41;89.72;102049.47;5020952;28;20046;-84
2022/09/05 04:16:38;;;;;;;2.70;2.50;;;;;;;17.37;89.94;102051.25;5017127;28;20527;-84
2022/09/05 04:19:18;;;;;;;2.80;2.58;;;;;;;17.34;90.45;102057.50;5021956;28;20041;-85
2022/09/05 04:22:02;;;;;;;4.63;3.33;;;;;;;17.32;90.37;102050.44;5019465;28;20026;-85
2022/09/05 04:24:49;;;;;;;5.22;2.92;;;;;;;17.29;90.73;102045.09;5019930;28;20041;-84
2022/09/05 04:27:28;;;;;;;2.85;2.65;;;;;;;17.26;90.67;102042.47;5008802;28;20060;-84
2022/09/05 04:29:57;;;;;;;3.95;2.80;;;;;;;17.25;90.73;102052.22;5016039;28;20037;-85
2022/09/05 04:32:53;;;;;;;2.80;2.60;;;;;;;17.23;91.09;102047.81;5038837;28;20045;-84
2022/09/05 04:35:48;;;;;;;3.67;2.92;;;;;;;17.19;91.58;102046.06;5037850;28;20038;-83
2022/09/05 04:38:34;;;;;;;3.08;2.78;;;;;;;17.15;91.02;102050.50;4985694;28;20076;-84
2022/09/05 04:41:11;;;;;;;5.28;3.95;;;;;;;17.13;91.26;102049.63;5023614;28;20041;-84
2022/09/05 04:43:57;;;;;;;3.85;3.40;;;;;;;17.11;91.50;102046.97;4986746;28;20042;-85
2022/09/05 04:46:41;;;;;;;5.95;3.05;;;;;;;17.10;91.69;102053.19;5014393;28;20057;-84
2022/09/05 04:49:22;;;;;;;7.28;2.55;;;;;;;17.09;91.84;102045.22;5015003;28;20258;-84
2022/09/05 04:51:54;;;;;;;3.00;2.70;;;;;;;17.08;92.01;102046.09;5021755;28;20045;-84
2022/09/05 04:54:50;;;;;;;3.40;3.10;;;;;;;17.06;92.89;102050.56;5011426;28;20491;-84
2022/09/05 04:57:34;;;;;;;4.72;3.03;;;;;;;17.05;92.28;102059.41;4982397;28;20045;-84
2022/09/05 05:00:07;;;;;;;3.10;2.83;;;;;;;17.04;92.64;102060.34;4976235;28;20053;-84
2022/09/05 05:03:03;;;;;;;5.03;3.10;;;;;;;17.02;92.70;102057.66;4999825;28;20038;-84
2022/09/05 05:05:57;;;;;;;3.40;2.97;;;;;;;17.01;93.11;102065.66;5008137;28;20033;-84
2022/09/05 05:08:57;;;;;;;2.92;2.50;;;;;;;16.99;93.39;102067.44;5008970;28;20052;-86
2022/09/05 05:11:50;;;;;;;5.40;3.80;;;;;;;16.97;93.47;102058.56;5005619;28;20383;-84
2022/09/05 05:14:59;;;;;;;5.35;3.28;;;;;;;16.97;93.41;102072.78;5015492;28;20050;-83
2022/09/05 05:18:04;;;;;;;4.95;3.38;;;;;;;16.95;94.20;102078.09;5034468;28;20064;-84
2022/09/05 05:21:01;;;;;;;5.03;2.80;;;;;;;16.95;93.89;102083.41;5016770;28;20045;-85
2022/09/05 05:23:57;;;;;;;3.55;3.25;;;;;;;16.95;94.31;102080.75;4998462;28;20056;-84
2022/09/05 05:26:35;;;;;;;3.10;2.72;;;;;;;16.95;94.67;102077.22;5023262;28;20052;-83
2022/09/05 05:29:09;;;;;;;4.47;3.08;;;;;;;16.94;94.93;102084.31;5005321;28;20041;-83
2022/09/05 05:31:48;;;;;;;3.45;3.17;;;;;;;16.97;94.65;102082.53;4997100;28;20046;-85
2022/09/05 05:34:23;;;;;;;3.38;3.08;;;;;;;16.98;94.65;102082.53;5009566;28;20606;-84
2022/09/05 05:37:17;;;;;;;7.65;3.28;;;;;;;17.00;94.71;102080.75;5027480;28;20048;-85
2022/09/05 05:39:56;;;;;;;3.75;3.17;;;;;;;17.01;94.39;102087.84;4991951;28;20368;-83
2022/09/05 05:42:25;;;;;;;3.33;3.03;;;;;;;17.03;94.90;102085.19;5001656;28;20399;-83
2022/09/05 05:44:58;;;;;;;5.05;2.92;;;;;;;17.04;95.31;102095.81;5009245;28;20037;-83
2022/09/05 05:47:35;;;;;;;6.18;3.00;;;;;;;17.07;95.22;102092.25;4980311;28;20710;-84
2022/09/05 05:50:41;;;;;;;5.22;2.70;;;;;;;17.13;95.61;102097.56;5024217;28;20041;-85
2022/09/05 05:53:24;;;;;;;6.95;3.08;;;;;;;17.20;95.41;102098.41;5006262;28;20045;-84
2022/09/05 05:56:32;;;;;;;5.40;3.38;;;;;;;17.21;95.08;102097.53;5030040;28;20503;-84
2022/09/05 05:59:44;;;;;;;8.30;3.40;;;;;;;17.22;95.47;102091.31;4995510;28;20045;-83
2022/09/05 06:02:59;;;;;;;4.15;3.13;;;;;;;17.26;95.03;102093.97;4999737;28;20037;-84
2022/09/05 06:06:25;;;;;;;5.50;3.25;;;;;;;17.31;95.44;102094.81;5022862;28;20049;-85
2022/09/05 06:09:12;;;;;;;7.45;3.33;;;;;;;17.36;94.98;102091.25;4982093;28;20052;-83
2022/09/05 06:12:38;;;;;;;6.40;3.20;;;;;;;17.39;94.90;102086.81;5010259;28;20064;-84
2022/09/05 06:15:36;;;;;;;5.53;3.00;;;;;;;17.46;94.77;102091.19;5021627;28;20053;-83
2022/09/05 06:18:43;;;;;;;5.82;3.28;;;;;;;17.52;94.52;102095.59;4994301;28;20053;-83
2022/09/05 06:22:10;;;;;;;4.28;3.10;;;;;;;17.58;94.51;102095.56;5019934;28;20041;-85
2022/09/05 06:25:01;;;;;;;5.15;2.88;;;;;;;17.66;94.34;102101.72;4942152;28;20074;-85
2022/09/05 06:28:07;;;;;;;4.53;3.38;;;;;;;17.74;93.82;102102.56;4921521;29;20051;-85
2022/09/05 06:30:59;;;;;;;4.40;3.10;;;;;;;17.80;93.64;102096.31;5013665;28;20052;-85
2022/09/05 06:34:07;;;;;;;5.43;3.60;;;;;;;17.88;93.23;102097.19;4976650;28;20494;-86
2022/09/05 06:37:06;;;;;;;4.68;3.15;;;;;;;17.97;93.04;102088.22;5010656;28;20167;-84
2022/09/05 06:40:16;;;;;;;3.50;2.80;;;;;;;18.17;92.38;102093.41;4970354;28;20054;-84
2022/09/05 06:43:31;;;;;;;4.57;2.72;;;;;;;18.43;92.06;102086.91;5023939;28;20048;-85
2022/09/05 06:46:21;;;;;;;3.55;2.97;;;;;;;18.55;91.21;102084.13;4965641;28;20173;-85
2022/09/05 06:49:21;;;;;;;3.17;2.80;;;;;;;18.73;90.98;102087.50;4971493;28;20038;-85
2022/09/05 06:52:39;;;;;;;4.15;3.10;;;;;;;18.89;89.60;102079.34;4978589;28;20069;-83
2022/09/05 06:55:08;;;;;;;6.28;3.20;;;;;;;19.04;89.20;102083.59;5003770;28;20308;-83
2022/09/05 06:58:16;;;;;;;4.68;2.67;;;;;;;19.19;88.31;102084.34;5003326;28;20403;-83
2022/09/05 07:00:47;;;;;;;5.63;3.28;;;;;;;19.38;87.13;102080.50;5005746;28;20042;-84
2022/09/05 07:03:40;;;;;;;2.97;2.75;;;;;;;19.65;86.91;102081.00;4977129;28;20042;-85
2022/09/05 07:06:30;;;;;;;3.38;3.00;;;;;;;19.90;85.50;102084.19;4979713;28;20037;-85
2022/09/05 07:09:38;;;;;;;3.35;3.15;;;;;;;20.19;83.59;102081.06;5004423;28;20042;-82
2022/09/05 07:12:22;;;;;;;4.68;3.10;;;;;;;20.30;82.87;102090.69;4996455;28;20053;-83
2022/09/05 07:14:55;;;;;;;4.63;3.10;;;;;;;20.27;82.47;102088.94;5008293;28;20073;-84
2022/09/05 07:17:56;;;;;;;8.98;3.13;;;;;;;20.21;81.29;102083.72;4973295;28;20042;-84
2022/09/05 07:20:57;;;;;;;5.07;2.97;;;;;;;20.11;81.69;102093.66;4985471;28;20034;-84
2022/09/05 07:23:54;;;;;;;7.05;2.92;;;;;;;20.09;81.60;102087.47;4995444;28;20042;-84
2022/09/05 07:26:45;;;;;;;4.10;3.05;;;;;;;20.11;80.90;102093.66;5001792;28;20038;-84
2022/09/05 07:29:28;;;;;;;5.90;2.95;;;;;;;20.17;80.70;102093.59;5006174;28;20034;-83
2022/09/05 07:32:01;;;;;;;3.35;3.03;;;;;;;20.24;80.71;102100.59;5000180;28;20046;-83
2022/09/05 07:34:32;;;;;;;5.10;2.90;;;;;;;20.31;80.41;102095.13;5012080;28;20351;-83
2022/09/05 07:37:08;;;;;;;5.55;2.85;;;;;;;20.37;80.28;102097.69;4991916;28;20279;-83
2022/09/05 07:40:09;;;;;;;7.00;3.10;;;;;;;20.47;80.74;102101.09;5001668;28;20042;-85
2022/09/05 07:43:03;;;;;;;3.38;2.72;;;;;;;20.52;80.16;102099.22;4984350;28;20287;-84
2022/09/05 07:45:44;;;;;;;7.05;3.00;;;;;;;20.60;80.03;102100.88;5030498;28;20064;-85
2022/09/05 07:48:27;;;;;;;5.15;3.10;;;;;;;20.75;79.88;102102.34;5007198;28;20049;-83
2022/09/05 07:51:07;;;;;;;4.47;2.70;;;;;;;20.92;79.99;102103.84;4976471;28;20651;-82
2022/09/05 07:54:01;;;;;;;3.22;2.92;;;;;;;21.15;79.60;102112.28;4988130;28;20326;-83
2022/09/05 07:56:54;;;;;;;3.42;2.50;;;;;;;21.33;79.58;102108.31;5016725;28;20049;-84
2022/09/05 07:59:46;;;;;;;4.00;2.80;;;;;;;21.47;79.38;102107.16;5014966;28;20037;-83
2022/09/05 08:02:18;;;;;;;5.65;2.65;;;;;;;21.67;79.35;102104.03;5028980;28;20416;-81
2022/09/05 08:04:46;;;;;;;6.40;3.03;;;;;;;21.88;78.04;102108.00;4987807;28;20049;-83
2022/09/05 08:07:20;;;;;;;8.40;3.22;;;;;;;21.99;77.72;102105.97;4979628;28;20045;-83
2022/09/05 08:10:38;;;;;;;5.60;3.00;;;;;;;22.19;77.51;102109.03;5003301;28;20252;-83
2022/09/05 08:13:47;;;;;;;6.40;3.28;;;;;;;22.36;75.75;102100.56;4995807;28;20037;-83
2022/09/05 08:16:22;;;;;;;3.05;2.42;;;;;;;22.45;75.91;102109.28;5010251;28;20045;-83
2022/09/05 08:19:25;;;;;;;4.72;2.50;;;;;;;22.51;74.89;102099.28;5003972;28;20072;-83
2022/09/05 08:21:58;;;;;;;4.55;3.08;;;;;;;22.54;75.25;102099.19;5020376;28;20166;-82
2022/09/05 08:24:42;;;;;;;2.95;2.70;;;;;;;22.68;75.13;102097.91;5003771;28;20056;-84
2022/09/05 08:27:22;;;;;;;4.53;2.97;;;;;;;22.95;74.30;102102.53;5007117;28;20050;-83
2022/09/05 08:29:59;;;;;;;4.07;3.22;;;;;;;23.24;74.97;102094.56;4999155;28;20037;-83
2022/09/05 08:32:57;;;;;;;6.07;3.10;;;;;;;23.37;71.59;102095.06;5032281;28;20537;-83
2022/09/05 08:36:06;;;;;;;5.45;3.05;;;;;;;23.23;70.73;102090.09;5027602;28;20053;-83
2022/09/05 08:38:43;;;;;;;4.50;3.03;;;;;;;23.16;71.93;102094.78;4988905;28;20041;-83
2022/09/05 08:41:12;;;;;;;5.75;3.10;;;;;;;23.35;70.83;102090.63;5003437;28;20042;-83
2022/09/05 08:43:55;;;;;;;3.80;2.75;;;;;;;23.38;70.26;102100.38;5019577;28;20398;-84
2022/09/05 08:46:51;;;;;;;3.90;2.88;;;;;;;23.42;70.20;102087.72;5028413;28;20048;-85
2022/09/05 08:49:42;;;;;;;6.15;2.70;;;;;;;23.52;69.88;102100.84;5019398;28;20053;-84
2022/09/05 08:52:21;;;;;;;10.77;3.00;;;;;;;23.63;69.19;102097.84;5035724;28;20072;-84
2022/09/05 08:55:25;;;;;;;5.90;3.20;;;;;;;23.61;68.15;102097.00;5003012;28;20049;-86
2022/09/05 08:57:59;;;;;;;6.13;3.38;;;;;;;23.58;69.03;102089.03;5004996;28;20357;-84
2022/09/05 09:00:37;;;;;;;5.18;2.60;;;;;;;23.57;68.90;102089.94;5009846;28;20040;-83
2022/09/05 09:03:27;;;;;;;4.55;2.95;;;;;;;23.58;69.33;102082.75;5023973;28;20358;-84
2022/09/05 09:05:58;;;;;;;8.82;3.58;;;;;;;23.51;68.56;102082.06;5010581;28;20172;-83
2022/09/05 09:08:57;;;;;;;7.65;3.50;;;;;;;23.51;69.61;102082.06;5020379;28;20052;-84
2022/09/05 09:11:42;;;;;;;13.77;4.35;;;;;;;23.55;68.84;102083.72;5015255;28;20042;-84
2022/09/05 09:14:56;;;;;;;8.35;4.07;;;;;;;23.39;69.77;102069.88;5018732;28;20503;-85
2022/09/05 09:17:34;;;;;;;4.25;2.70;;;;;;;23.39;70.35;102083.34;5016869;28;20058;-84
2022/09/05 09:20:13;;;;;;;4.20;3.17;;;;;;;23.41;70.20;102075.22;5030249;28;20037;-85
2022/09/05 09:23:09;;;;;;;6.00;2.90;;;;;;;23.35;70.70;102068.22;5020821;28;20037;-86
2022/09/05 09:26:12;;;;;;;2.78;2.58;;;;;;;23.42;72.00;102071.59;4987398;28;20050;-85
2022/09/05 09:29:09;;;;;;;6.95;2.95;;;;;;;23.51;71.25;102074.00;5006599;28;20041;-84
2022/09/05 09:32:00;;;;;;;3.95;2.80;;;;;;;23.64;70.88;102061.91;5013274;28;20060;-85
2022/09/05 09:34:32;;;;;;;4.95;3.00;;;;;;;23.72;70.84;102067.03;5033273;28;20029;-84
2022/09/05 09:37:45;;;;;;;4.47;2.42;;;;;;;23.85;71.45;102057.66;4999853;28;20064;-85
2022/09/05 09:40:43;;;;;;;3.58;2.50;;;;;;;24.00;71.09;102058.09;5005238;28;20049;-85
2022/09/05 09:43:40;;;;;;;6.90;2.67;;;;;;;23.97;70.18;102056.41;5012839;28;20042;-85
2022/09/05 09:46:29;;;;;;;6.15;2.90;;;;;;;23.91;70.73;102064.66;5017093;28;20517;-84
2022/09/05 09:49:10;;;;;;;3.28;2.30;;;;;;;23.91;70.87;102061.97;5006176;28;20144;-84
2022/09/05 09:52:22;;;;;;;7.20;3.13;;;;;;;23.82;70.82;102056.88;5010908;28;20175;-86
2022/09/05 09:55:22;;;;;;;5.80;2.25;;;;;;;23.88;72.23;102054.00;5001771;28;20034;-85
2022/09/05 09:58:20;;;;;;;7.75;3.20;;;;;;;24.02;70.55;102049.00;4985135;28;20050;-85
2022/09/05 10:01:28;;;;;;;5.95;2.97;;;;;;;24.07;70.70;102055.13;5014365;28;20041;-85
2022/09/05 10:04:29;;;;;;;6.03;2.70;;;;;;;24.12;70.89;102046.88;4998598;28;20072;-84
2022/09/05 10:07:49;;;;;;;7.32;3.10;;;;;;;24.19;70.25;102050.25;5009231;28;20049;-86
2022/09/05 10:11:02;;;;;;;4.70;2.53;;;;;;;24.21;71.39;102043.88;4995817;28;20056;-85
2022/09/05 10:14:01;;;;;;;3.63;2.88;;;;;;;24.36;70.93;102045.16;5000697;28;23238;-85
2022/09/05 10:16:41;;;;;;;5.57;2.47;;;;;;;24.47;72.29;102029.47;5019442;28;20052;-85
2022/09/05 10:19:36;;;;;;;3.88;2.90;;;;;;;24.64;70.37;102033.41;5024992;28;20353;-83
2022/09/05 10:22:46;;;;;;;5.38;3.03;;;;;;;24.79;71.09;102029.25;4996858;28;20053;-83
2022/09/05 10:25:45;;;;;;;5.90;3.10;;;;;;;24.81;71.78;102032.78;5006840;28;20053;-82
2022/09/05 10:28:36;;;;;;;7.40;2.73;;;;;;;24.80;71.62;102025.63;4991424;28;20296;-83
2022/09/05 10:31:21;;;;;;;;;;;;;;;24.81;72.11;102019.31;5020821;28;20291;-84
2022/09/05 10:34:17;;;;;;;6.10;3.17;;;;;;;24.84;71.41;102027.25;5009017;28;19938;-83
2022/09/05 10:37:11;;;;;;;5.57;3.00;;;;;;;24.82;71.37;102029.13;4996175;28;20190;-81
2022/09/05 10:39:49;;;;;;;4.38;3.13;;;;;;;24.77;71.54;102029.31;5006748;28;20483;-84
2022/09/05 10:42:42;;;;;;;3.35;2.63;;;;;;;24.75;72.10;102027.63;4998948;28;20049;-83
2022/09/05 10:45:51;;;;;;;6.28;3.47;;;;;;;24.77;72.42;102028.44;4994894;28;20061;-83
2022/09/05 10:48:34;;;;;;;3.30;3.00;;;;;;;24.73;72.27;102030.38;5014180;28;20045;-82
2022/09/05 10:51:17;;;;;;;6.82;3.10;;;;;;;24.69;72.92;102036.81;5023167;28;20037;-83
2022/09/05 10:54:02;;;;;;;4.22;3.03;;;;;;;24.74;73.09;102028.53;5000714;28;20207;-83
2022/09/05 10:56:46;;;;;;;7.07;2.85;;;;;;;24.86;73.31;102026.28;5036314;28;20060;-84
2022/09/05 10:59:23;;;;;;;8.52;3.03;;;;;;;24.84;72.68;102017.38;4978185;28;20489;-84
2022/09/05 11:02:21;;;;;;;6.70;2.80;;;;;;;24.95;73.47;102022.31;5014025;28;20048;-82
2022/09/05 11:05:28;;;;;;;9.88;2.75;;;;;;;25.09;73.26;102021.81;5007801;28;20068;-83
2022/09/05 11:08:16;;;;;;;7.60;3.10;;;;;;;25.16;72.89;102019.72;5031475;28;20227;-84
2022/09/05 11:11:00;;;;;;;4.97;2.72;;;;;;;25.30;73.63;102017.41;5030476;28;20052;-84
2022/09/05 11:13:42;;;;;;;3.38;2.85;;;;;;;25.39;71.61;102010.78;5032204;28;20053;-84
2022/09/05 11:16:51;;;;;;;5.07;2.60;;;;;;;25.47;71.42;102016.72;5011088;28;20410;-84
2022/09/05 11:19:38;;;;;;;6.03;2.47;;;;;;;25.62;71.03;102013.38;4952815;29;20043;-84
2022/09/05 11:22:08;;;;;;;3.92;2.60;;;;;;;25.71;70.30;102011.25;4935018;28;20257;-84
2022/09/05 11:24:57;;;;;;;4.72;3.45;;;;;;;25.76;70.55;102011.94;4961725;28;20661;-84
2022/09/05 11:27:35;;;;;;;5.40;2.97;;;;;;;25.82;69.30;102008.97;5026776;28;20042;-84
2022/09/05 11:30:14;;;;;;;3.20;2.60;;;;;;;25.86;69.67;102016.00;5015868;28;20294;-83
2022/09/05 11:33:08;;;;;;;6.00;2.90;;;;;;;25.87;69.77;102009.66;5004207;28;20586;-82
2022/09/05 11:36:22;;;;;;;6.65;2.83;;;;;;;25.96;70.35;102005.72;5006510;28;20171;-83
2022/09/05 11:39:41;;;;;;;4.00;2.50;;;;;;;26.09;69.35;102003.34;5002998;28;20061;-82
2022/09/05 11:42:41;;;;;;;4.60;2.50;;;;;;;26.14;68.26;101995.94;4958234;28;20058;-82
2022/09/05 11:46:01;;;;;;;4.50;2.45;;;;;;;26.16;68.38;101999.44;4972031;28;20057;-82
2022/09/05 11:49:02;;;;;;;5.55;2.47;;;;;;;26.25;68.69;101993.63;4910896;28;20076;-82
2022/09/05 11:51:53;;;;;;;5.53;2.70;;;;;;;26.25;67.54;101994.50;4988347;28;20042;-83
2022/09/05 11:54:40;;;;;;;;;;;;;;;26.21;67.97;101994.72;4962854;28;20049;-83
2022/09/05 11:57:30;;;;;;;3.83;2.47;;;;;;;26.19;68.32;101991.22;4969117;28;20628;-83
2022/09/05 12:00:10;;;;;;;6.57;1.95;;;;;;;26.27;68.91;101983.63;4992914;28;20038;-81
2022/09/05 12:03:19;;;;;;;5.10;2.25;;;;;;;26.47;68.20;101981.88;4947291;28;20268;-84
2022/09/05 12:06:23;;;;;;;2.13;1.93;;;;;;;26.49;67.10;101986.25;4974870;28;20503;-82
2022/09/05 12:09:03;;;;;;;2.78;2.50;;;;;;;26.54;67.03;101984.22;4987109;28;20574;-82
2022/09/05 12:11:45;;;;;;;4.57;2.33;;;;;;;26.54;66.67;101977.91;4980304;28;20049;-82
2022/09/05 12:14:37;;;;;;;5.13;2.20;;;;;;;26.53;66.54;101973.47;4972987;28;20062;-81
2022/09/05 12:17:29;;;;;;;2.50;2.20;;;;;;;26.58;66.83;101976.84;4951985;28;20054;-82
2022/09/05 12:20:11;;;;;;;3.28;2.40;;;;;;;26.68;67.29;101978.19;4993966;28;20050;-82
2022/09/05 12:23:25;;;;;;;5.10;2.65;;;;;;;26.74;66.21;101975.19;4990337;28;20785;-83
2022/09/05 12:26:31;;;;;;;8.20;2.70;;;;;;;26.67;65.30;101975.56;5020167;28;20038;-82
2022/09/05 12:29:26;;;;;;;6.30;2.38;;;;;;;26.67;65.72;101970.16;5014780;28;20033;-81
2022/09/05 12:32:14;;;;;;;5.20;2.20;;;;;;;26.67;65.29;101968.31;5000701;28;20309;-82
2022/09/05 12:35:03;;;;;;;13.13;2.50;;;;;;;26.67;66.55;101965.59;4999674;28;20148;-83
2022/09/05 12:38:24;;;;;;;6.87;2.77;;;;;;;26.76;65.85;101967.00;4983605;28;20138;-83
2022/09/05 12:41:35;;;;;;;5.40;2.80;;;;;;;26.81;66.24;101960.44;5010684;28;20534;-84
2022/09/05 12:44:38;;;;;;;6.80;2.28;;;;;;;26.96;66.14;101955.25;4989001;28;20046;-83
2022/09/05 12:47:17;;;;;;;2.20;2.00;;;;;;;27.03;66.35;101956.69;5005278;28;20049;-77
2022/09/05 12:50:07;;;;;;;5.47;2.28;;;;;;;27.13;66.29;101958.00;4972475;28;20311;-77
2022/09/05 12:52:51;;;;;;;6.03;2.53;;;;;;;27.29;65.43;101952.72;4994836;28;20069;-78
2022/09/05 12:55:29;;;;;;;4.05;2.28;;;;;;;27.38;64.59;101952.28;4979037;28;20423;-78
2022/09/05 12:58:14;;;;;;;2.67;2.25;;;;;;;27.37;64.60;101950.53;4991659;28;20060;-78
2022/09/05 13:01:22;;;;;;;5.20;2.40;;;;;;;27.38;64.07;101959.53;4994783;28;20037;-78
2022/09/05 13:04:17;;;;;;;3.50;2.15;;;;;;;27.31;63.45;101956.25;4961642;28;20053;-78
2022/09/05 13:06:59;;;;;;;6.32;2.58;;;;;;;27.32;63.41;101960.72;5006335;28;20533;-78
2022/09/05 13:09:40;;;;;;;2.30;2.08;;;;;;;27.28;62.66;101959.13;4967436;28;20141;-78
2022/09/05 13:12:37;;;;;;;5.47;2.30;;;;;;;27.24;62.69;101946.66;4993039;28;20034;-79
2022/09/05 13:15:35;;;;;;;3.05;2.20;;;;;;;27.29;62.95;101949.16;5004320;28;20227;-78
2022/09/05 13:18:11;;;;;;;6.13;2.45;;;;;;;27.33;62.50;101948.91;5004282;28;20049;-78
2022/09/05 13:20:50;;;;;;;3.58;2.40;;;;;;;27.42;62.80;101936.75;4963575;28;20029;-78